sensor_id;sensor_type;location;lat;lon;timestamp;P1;durP1;ratioP1;P2;durP2;ratioP2
18716;SDS011;9487;50.892;6.906;2022-12-08T00:01:25;25.23;;;18.27;;
18716;SDS011;9487;50.892;6.906;2022-12-08T00:03:53;21.30;;;16.73;;
18716;SDS011;9487;50.892;6.906;2022-12-08T00:06:22;22.40;;;17.27;;
18716;SDS011;9487;50.892;6.906;2022-12-08T00:09:19;20.23;;;16.30;;
18716;SDS011;9487;50.892;6.906;2022-12-08T00:11:47;21.40;;;16.57;;
18716;SDS011;9487;50.892;6.906;2022-12-08T00:14:14;24.80;;;17.70;;
18716;SDS011;9487;50.892;6.906;2022-12-08T00:16:41;21.73;;;16.57;;
18716;SDS011;9487;50.892;6.906;2022-12-08T00:19:08;19.33;;;15.77;;
18716;SDS011;9487;50.892;6.906;2022-12-08T00:21:34;21.83;;;15.90;;
18716;SDS011;9487;50.892;6.906;2022-12-08T00:24:01;21.87;;;16.90;;
18716;SDS011;9487;50.892;6.906;2022-12-08T00:26:29;25.50;;;17.07;;
18716;SDS011;9487;50.892;6.906;2022-12-08T00:28:56;24.87;;;17.73;;
18716;SDS011;9487;50.892;6.906;2022-12-08T00:31:23;20.20;;;17.07;;
18716;SDS011;9487;50.892;6.906;2022-12-08T00:33:50;23.43;;;17.17;;
18716;SDS011;9487;50.892;6.906;2022-12-08T00:36:17;22.57;;;17.47;;
18716;SDS011;9487;50.892;6.906;2022-12-08T00:38:44;21.67;;;16.47;;
18716;SDS011;9487;50.892;6.906;2022-12-08T00:41:12;24.00;;;17.93;;
18716;SDS011;9487;50.892;6.906;2022-12-08T00:43:42;20.73;;;16.50;;
18716;SDS011;9487;50.892;6.906;2022-12-08T00:46:09;20.90;;;17.03;;
18716;SDS011;9487;50.892;6.906;2022-12-08T00:48:36;23.47;;;17.03;;
18716;SDS011;9487;50.892;6.906;2022-12-08T00:51:03;21.53;;;16.67;;
18716;SDS011;9487;50.892;6.906;2022-12-08T00:53:30;22.60;;;16.63;;
18716;SDS011;9487;50.892;6.906;2022-12-08T00:55:57;22.77;;;17.30;;
18716;SDS011;9487;50.892;6.906;2022-12-08T00:58:23;19.83;;;16.63;;
18716;SDS011;9487;50.892;6.906;2022-12-08T01:00:52;24.33;;;17.67;;
18716;SDS011;9487;50.892;6.906;2022-12-08T01:03:18;23.50;;;17.67;;
18716;SDS011;9487;50.892;6.906;2022-12-08T01:05:45;22.17;;;17.80;;
18716;SDS011;9487;50.892;6.906;2022-12-08T01:08:12;23.07;;;17.60;;
18716;SDS011;9487;50.892;6.906;2022-12-08T01:10:39;21.53;;;16.93;;
18716;SDS011;9487;50.892;6.906;2022-12-08T01:13:06;22.60;;;18.10;;
18716;SDS011;9487;50.892;6.906;2022-12-08T01:15:32;22.43;;;18.00;;
18716;SDS011;9487;50.892;6.906;2022-12-08T01:18:01;23.07;;;17.80;;
18716;SDS011;9487;50.892;6.906;2022-12-08T01:20:28;26.87;;;18.83;;
18716;SDS011;9487;50.892;6.906;2022-12-08T01:22:54;24.03;;;18.07;;
18716;SDS011;9487;50.892;6.906;2022-12-08T01:25:22;24.93;;;18.73;;
18716;SDS011;9487;50.892;6.906;2022-12-08T01:27:50;24.93;;;19.30;;
18716;SDS011;9487;50.892;6.906;2022-12-08T01:30:17;25.60;;;18.97;;
18716;SDS011;9487;50.892;6.906;2022-12-08T01:32:44;24.93;;;17.57;;
18716;SDS011;9487;50.892;6.906;2022-12-08T01:35:12;22.67;;;18.40;;
18716;SDS011;9487;50.892;6.906;2022-12-08T01:37:39;22.90;;;17.87;;
18716;SDS011;9487;50.892;6.906;2022-12-08T01:40:07;19.90;;;17.23;;
18716;SDS011;9487;50.892;6.906;2022-12-08T01:42:34;22.23;;;18.17;;
18716;SDS011;9487;50.892;6.906;2022-12-08T01:45:02;21.37;;;18.20;;
18716;SDS011;9487;50.892;6.906;2022-12-08T01:47:33;22.73;;;18.73;;
18716;SDS011;9487;50.892;6.906;2022-12-08T01:50:03;19.83;;;17.23;;
18716;SDS011;9487;50.892;6.906;2022-12-08T01:52:34;22.37;;;18.10;;
18716;SDS011;9487;50.892;6.906;2022-12-08T01:55:05;21.33;;;17.13;;
18716;SDS011;9487;50.892;6.906;2022-12-08T01:57:36;18.80;;;16.23;;
18716;SDS011;9487;50.892;6.906;2022-12-08T02:00:08;23.10;;;17.63;;
18716;SDS011;9487;50.892;6.906;2022-12-08T02:02:38;19.60;;;17.40;;
18716;SDS011;9487;50.892;6.906;2022-12-08T02:05:13;20.43;;;17.07;;
18716;SDS011;9487;50.892;6.906;2022-12-08T02:07:43;21.83;;;17.37;;
18716;SDS011;9487;50.892;6.906;2022-12-08T02:10:11;20.67;;;16.83;;
18716;SDS011;9487;50.892;6.906;2022-12-08T02:12:42;19.60;;;16.67;;
18716;SDS011;9487;50.892;6.906;2022-12-08T02:15:09;23.03;;;17.47;;
18716;SDS011;9487;50.892;6.906;2022-12-08T02:17:41;23.00;;;17.23;;
18716;SDS011;9487;50.892;6.906;2022-12-08T02:20:22;20.03;;;16.13;;
18716;SDS011;9487;50.892;6.906;2022-12-08T02:23:05;23.23;;;17.30;;
18716;SDS011;9487;50.892;6.906;2022-12-08T02:25:45;20.53;;;16.90;;
18716;SDS011;9487;50.892;6.906;2022-12-08T02:28:35;20.87;;;16.77;;
18716;SDS011;9487;50.892;6.906;2022-12-08T02:31:16;20.17;;;15.87;;
18716;SDS011;9487;50.892;6.906;2022-12-08T02:33:59;20.47;;;15.97;;
18716;SDS011;9487;50.892;6.906;2022-12-08T02:36:31;20.50;;;15.47;;
18716;SDS011;9487;50.892;6.906;2022-12-08T02:39:09;18.00;;;15.60;;
18716;SDS011;9487;50.892;6.906;2022-12-08T02:41:44;19.23;;;15.53;;
18716;SDS011;9487;50.892;6.906;2022-12-08T02:44:15;21.80;;;15.93;;
18716;SDS011;9487;50.892;6.906;2022-12-08T02:46:48;17.53;;;14.60;;
18716;SDS011;9487;50.892;6.906;2022-12-08T02:49:19;19.37;;;15.37;;
18716;SDS011;9487;50.892;6.906;2022-12-08T02:51:46;18.07;;;14.53;;
18716;SDS011;9487;50.892;6.906;2022-12-08T02:54:12;17.67;;;14.63;;
18716;SDS011;9487;50.892;6.906;2022-12-08T02:59:44;16.37;;;14.60;;
18716;SDS011;9487;50.892;6.906;2022-12-08T03:02:25;16.30;;;14.27;;
18716;SDS011;9487;50.892;6.906;2022-12-08T03:05:04;19.40;;;13.63;;
18716;SDS011;9487;50.892;6.906;2022-12-08T03:07:37;15.53;;;12.13;;
18716;SDS011;9487;50.892;6.906;2022-12-08T03:10:10;14.60;;;12.80;;
18716;SDS011;9487;50.892;6.906;2022-12-08T03:12:41;15.90;;;12.40;;
18716;SDS011;9487;50.892;6.906;2022-12-08T03:15:14;15.77;;;11.90;;
18716;SDS011;9487;50.892;6.906;2022-12-08T03:17:44;13.83;;;11.60;;
18716;SDS011;9487;50.892;6.906;2022-12-08T03:20:24;14.17;;;11.67;;
18716;SDS011;9487;50.892;6.906;2022-12-08T03:22:54;13.87;;;10.83;;
18716;SDS011;9487;50.892;6.906;2022-12-08T03:25:31;13.57;;;10.33;;
18716;SDS011;9487;50.892;6.906;2022-12-08T03:28:01;14.13;;;10.63;;
18716;SDS011;9487;50.892;6.906;2022-12-08T03:30:29;14.43;;;11.30;;
18716;SDS011;9487;50.892;6.906;2022-12-08T03:33:02;15.30;;;10.27;;
18716;SDS011;9487;50.892;6.906;2022-12-08T03:35:34;11.33;;;9.47;;
18716;SDS011;9487;50.892;6.906;2022-12-08T03:38:04;13.40;;;9.43;;
18716;SDS011;9487;50.892;6.906;2022-12-08T03:40:33;12.33;;;9.70;;
18716;SDS011;9487;50.892;6.906;2022-12-08T03:43:00;13.47;;;9.87;;
18716;SDS011;9487;50.892;6.906;2022-12-08T03:45:27;12.70;;;10.27;;
18716;SDS011;9487;50.892;6.906;2022-12-08T03:47:53;14.13;;;9.63;;
18716;SDS011;9487;50.892;6.906;2022-12-08T03:50:21;14.77;;;10.60;;
18716;SDS011;9487;50.892;6.906;2022-12-08T03:52:49;14.07;;;10.83;;
18716;SDS011;9487;50.892;6.906;2022-12-08T03:55:16;15.07;;;12.00;;
18716;SDS011;9487;50.892;6.906;2022-12-08T03:57:45;12.57;;;10.37;;
18716;SDS011;9487;50.892;6.906;2022-12-08T04:00:14;11.67;;;10.27;;
18716;SDS011;9487;50.892;6.906;2022-12-08T04:02:42;12.07;;;10.73;;
18716;SDS011;9487;50.892;6.906;2022-12-08T04:05:10;12.43;;;10.40;;
18716;SDS011;9487;50.892;6.906;2022-12-08T04:07:36;11.93;;;9.90;;
18716;SDS011;9487;50.892;6.906;2022-12-08T04:10:05;12.50;;;10.07;;
18716;SDS011;9487;50.892;6.906;2022-12-08T04:12:33;12.47;;;9.70;;
18716;SDS011;9487;50.892;6.906;2022-12-08T04:15:00;12.27;;;10.10;;
18716;SDS011;9487;50.892;6.906;2022-12-08T04:17:26;13.73;;;10.07;;
18716;SDS011;9487;50.892;6.906;2022-12-08T04:19:53;12.97;;;10.50;;
18716;SDS011;9487;50.892;6.906;2022-12-08T04:22:20;13.20;;;11.43;;
18716;SDS011;9487;50.892;6.906;2022-12-08T04:24:47;13.67;;;11.07;;
18716;SDS011;9487;50.892;6.906;2022-12-08T04:27:15;13.73;;;10.60;;
18716;SDS011;9487;50.892;6.906;2022-12-08T04:29:42;14.23;;;11.07;;
18716;SDS011;9487;50.892;6.906;2022-12-08T04:32:09;14.30;;;11.37;;
18716;SDS011;9487;50.892;6.906;2022-12-08T04:34:35;12.87;;;11.23;;
18716;SDS011;9487;50.892;6.906;2022-12-08T04:37:02;15.63;;;10.73;;
18716;SDS011;9487;50.892;6.906;2022-12-08T04:39:29;14.87;;;11.63;;
18716;SDS011;9487;50.892;6.906;2022-12-08T04:41:56;14.10;;;12.27;;
18716;SDS011;9487;50.892;6.906;2022-12-08T04:44:24;14.90;;;12.20;;
18716;SDS011;9487;50.892;6.906;2022-12-08T04:46:51;14.60;;;11.33;;
18716;SDS011;9487;50.892;6.906;2022-12-08T04:49:17;15.53;;;11.83;;
18716;SDS011;9487;50.892;6.906;2022-12-08T04:51:44;16.10;;;12.10;;
18716;SDS011;9487;50.892;6.906;2022-12-08T04:54:11;17.60;;;12.67;;
18716;SDS011;9487;50.892;6.906;2022-12-08T04:56:38;16.30;;;12.80;;
18716;SDS011;9487;50.892;6.906;2022-12-08T04:59:05;16.73;;;12.93;;
18716;SDS011;9487;50.892;6.906;2022-12-08T05:01:33;16.27;;;12.60;;
18716;SDS011;9487;50.892;6.906;2022-12-08T05:04:00;15.97;;;13.40;;
18716;SDS011;9487;50.892;6.906;2022-12-08T05:06:26;15.73;;;13.03;;
18716;SDS011;9487;50.892;6.906;2022-12-08T05:08:53;16.63;;;13.03;;
18716;SDS011;9487;50.892;6.906;2022-12-08T05:11:21;17.63;;;13.30;;
18716;SDS011;9487;50.892;6.906;2022-12-08T05:13:47;19.00;;;13.87;;
18716;SDS011;9487;50.892;6.906;2022-12-08T05:16:14;18.27;;;13.97;;
18716;SDS011;9487;50.892;6.906;2022-12-08T05:18:43;16.87;;;14.50;;
18716;SDS011;9487;50.892;6.906;2022-12-08T05:21:10;17.70;;;14.60;;
18716;SDS011;9487;50.892;6.906;2022-12-08T05:23:37;19.50;;;15.73;;
18716;SDS011;9487;50.892;6.906;2022-12-08T05:26:04;22.70;;;17.43;;
18716;SDS011;9487;50.892;6.906;2022-12-08T05:28:31;23.43;;;17.20;;
18716;SDS011;9487;50.892;6.906;2022-12-08T05:30:58;20.90;;;16.60;;
18716;SDS011;9487;50.892;6.906;2022-12-08T05:33:25;23.60;;;16.67;;
18716;SDS011;9487;50.892;6.906;2022-12-08T05:35:53;23.40;;;17.17;;
18716;SDS011;9487;50.892;6.906;2022-12-08T05:38:20;22.83;;;17.67;;
18716;SDS011;9487;50.892;6.906;2022-12-08T05:40:46;22.93;;;17.80;;
18716;SDS011;9487;50.892;6.906;2022-12-08T05:43:13;22.53;;;16.47;;
18716;SDS011;9487;50.892;6.906;2022-12-08T05:45:40;24.17;;;17.30;;
18716;SDS011;9487;50.892;6.906;2022-12-08T05:48:07;25.67;;;17.50;;
18716;SDS011;9487;50.892;6.906;2022-12-08T05:50:34;25.47;;;18.63;;
18716;SDS011;9487;50.892;6.906;2022-12-08T05:53:02;27.10;;;17.87;;
18716;SDS011;9487;50.892;6.906;2022-12-08T05:55:28;24.90;;;17.23;;
18716;SDS011;9487;50.892;6.906;2022-12-08T05:57:55;26.77;;;17.47;;
18716;SDS011;9487;50.892;6.906;2022-12-08T06:00:22;23.37;;;16.57;;
18716;SDS011;9487;50.892;6.906;2022-12-08T06:02:49;22.13;;;17.53;;
18716;SDS011;9487;50.892;6.906;2022-12-08T06:05:16;25.43;;;17.03;;
18716;SDS011;9487;50.892;6.906;2022-12-08T06:07:42;19.97;;;13.67;;
18716;SDS011;9487;50.892;6.906;2022-12-08T06:10:11;20.40;;;14.83;;
18716;SDS011;9487;50.892;6.906;2022-12-08T06:12:38;21.47;;;15.10;;
18716;SDS011;9487;50.892;6.906;2022-12-08T06:15:05;23.97;;;15.87;;
18716;SDS011;9487;50.892;6.906;2022-12-08T06:17:33;19.53;;;14.57;;
18716;SDS011;9487;50.892;6.906;2022-12-08T06:19:59;15.80;;;9.10;;
18716;SDS011;9487;50.892;6.906;2022-12-08T06:22:27;23.67;;;15.47;;
18716;SDS011;9487;50.892;6.906;2022-12-08T06:24:54;20.80;;;14.67;;
18716;SDS011;9487;50.892;6.906;2022-12-08T06:27:22;22.47;;;14.57;;
18716;SDS011;9487;50.892;6.906;2022-12-08T06:29:49;18.80;;;14.37;;
18716;SDS011;9487;50.892;6.906;2022-12-08T06:32:16;20.80;;;14.60;;
18716;SDS011;9487;50.892;6.906;2022-12-08T06:34:43;18.97;;;13.80;;
18716;SDS011;9487;50.892;6.906;2022-12-08T06:37:10;21.40;;;14.53;;
18716;SDS011;9487;50.892;6.906;2022-12-08T06:39:37;19.27;;;14.00;;
18716;SDS011;9487;50.892;6.906;2022-12-08T06:42:04;17.17;;;12.73;;
18716;SDS011;9487;50.892;6.906;2022-12-08T06:44:49;17.20;;;12.30;;
18716;SDS011;9487;50.892;6.906;2022-12-08T06:47:16;22.67;;;14.50;;
18716;SDS011;9487;50.892;6.906;2022-12-08T06:49:43;21.13;;;14.10;;
18716;SDS011;9487;50.892;6.906;2022-12-08T06:52:10;18.67;;;12.77;;
18716;SDS011;9487;50.892;6.906;2022-12-08T06:54:37;22.07;;;14.90;;
18716;SDS011;9487;50.892;6.906;2022-12-08T06:57:04;21.30;;;14.47;;
18716;SDS011;9487;50.892;6.906;2022-12-08T06:59:31;19.67;;;13.47;;
18716;SDS011;9487;50.892;6.906;2022-12-08T07:01:59;18.20;;;14.07;;
18716;SDS011;9487;50.892;6.906;2022-12-08T07:04:26;18.97;;;15.13;;
18716;SDS011;9487;50.892;6.906;2022-12-08T07:06:53;19.13;;;14.07;;
18716;SDS011;9487;50.892;6.906;2022-12-08T07:09:20;20.70;;;14.27;;
18716;SDS011;9487;50.892;6.906;2022-12-08T07:11:47;19.87;;;14.60;;
18716;SDS011;9487;50.892;6.906;2022-12-08T07:14:13;19.97;;;13.30;;
18716;SDS011;9487;50.892;6.906;2022-12-08T07:16:40;15.13;;;11.00;;
18716;SDS011;9487;50.892;6.906;2022-12-08T07:19:09;22.17;;;15.20;;
18716;SDS011;9487;50.892;6.906;2022-12-08T07:21:36;15.13;;;9.63;;
18716;SDS011;9487;50.892;6.906;2022-12-08T07:24:03;19.87;;;10.80;;
18716;SDS011;9487;50.892;6.906;2022-12-08T07:26:30;21.40;;;14.80;;
18716;SDS011;9487;50.892;6.906;2022-12-08T07:28:58;23.50;;;16.17;;
18716;SDS011;9487;50.892;6.906;2022-12-08T07:31:25;25.77;;;14.63;;
18716;SDS011;9487;50.892;6.906;2022-12-08T07:33:53;24.17;;;15.90;;
18716;SDS011;9487;50.892;6.906;2022-12-08T07:36:22;20.73;;;13.60;;
18716;SDS011;9487;50.892;6.906;2022-12-08T07:38:50;18.83;;;13.57;;
18716;SDS011;9487;50.892;6.906;2022-12-08T07:41:18;22.33;;;16.30;;
18716;SDS011;9487;50.892;6.906;2022-12-08T07:43:46;24.07;;;16.90;;
18716;SDS011;9487;50.892;6.906;2022-12-08T07:46:13;23.30;;;16.63;;
18716;SDS011;9487;50.892;6.906;2022-12-08T07:48:41;23.97;;;15.00;;
18716;SDS011;9487;50.892;6.906;2022-12-08T07:51:09;23.23;;;16.73;;
18716;SDS011;9487;50.892;6.906;2022-12-08T07:53:39;22.93;;;16.03;;
18716;SDS011;9487;50.892;6.906;2022-12-08T07:56:07;23.27;;;14.10;;
18716;SDS011;9487;50.892;6.906;2022-12-08T07:58:34;19.80;;;12.77;;
18716;SDS011;9487;50.892;6.906;2022-12-08T08:01:01;21.27;;;14.27;;
18716;SDS011;9487;50.892;6.906;2022-12-08T08:03:28;20.63;;;14.87;;
18716;SDS011;9487;50.892;6.906;2022-12-08T08:06:01;22.60;;;16.27;;
18716;SDS011;9487;50.892;6.906;2022-12-08T08:08:28;21.20;;;14.90;;
18716;SDS011;9487;50.892;6.906;2022-12-08T08:10:56;19.93;;;15.07;;
18716;SDS011;9487;50.892;6.906;2022-12-08T08:13:23;19.40;;;12.30;;
18716;SDS011;9487;50.892;6.906;2022-12-08T08:15:50;20.27;;;14.43;;
18716;SDS011;9487;50.892;6.906;2022-12-08T08:18:17;21.73;;;14.47;;
18716;SDS011;9487;50.892;6.906;2022-12-08T08:20:43;19.87;;;15.27;;
18716;SDS011;9487;50.892;6.906;2022-12-08T08:23:10;22.53;;;15.67;;
18716;SDS011;9487;50.892;6.906;2022-12-08T08:25:37;23.40;;;15.73;;
18716;SDS011;9487;50.892;6.906;2022-12-08T08:28:05;23.80;;;15.83;;
18716;SDS011;9487;50.892;6.906;2022-12-08T08:30:32;23.40;;;15.23;;
18716;SDS011;9487;50.892;6.906;2022-12-08T08:32:59;23.57;;;15.57;;
18716;SDS011;9487;50.892;6.906;2022-12-08T08:35:26;17.00;;;13.73;;
18716;SDS011;9487;50.892;6.906;2022-12-08T08:37:52;20.17;;;13.50;;
18716;SDS011;9487;50.892;6.906;2022-12-08T08:40:25;21.00;;;13.57;;
18716;SDS011;9487;50.892;6.906;2022-12-08T08:42:52;20.10;;;13.90;;
18716;SDS011;9487;50.892;6.906;2022-12-08T08:45:21;16.07;;;13.30;;
18716;SDS011;9487;50.892;6.906;2022-12-08T08:47:47;18.87;;;13.90;;
18716;SDS011;9487;50.892;6.906;2022-12-08T08:50:14;19.23;;;13.33;;
18716;SDS011;9487;50.892;6.906;2022-12-08T08:52:41;21.03;;;14.80;;
18716;SDS011;9487;50.892;6.906;2022-12-08T08:55:08;22.73;;;13.90;;
18716;SDS011;9487;50.892;6.906;2022-12-08T08:57:35;19.30;;;14.67;;
18716;SDS011;9487;50.892;6.906;2022-12-08T09:00:02;20.77;;;14.23;;
18716;SDS011;9487;50.892;6.906;2022-12-08T09:02:32;19.67;;;13.73;;
18716;SDS011;9487;50.892;6.906;2022-12-08T09:04:58;20.03;;;14.67;;
18716;SDS011;9487;50.892;6.906;2022-12-08T09:07:25;20.73;;;13.93;;
18716;SDS011;9487;50.892;6.906;2022-12-08T09:09:52;19.23;;;14.43;;
18716;SDS011;9487;50.892;6.906;2022-12-08T09:12:19;20.13;;;14.93;;
18716;SDS011;9487;50.892;6.906;2022-12-08T09:14:46;20.03;;;14.87;;
18716;SDS011;9487;50.892;6.906;2022-12-08T09:17:13;17.97;;;12.20;;
18716;SDS011;9487;50.892;6.906;2022-12-08T09:19:41;15.33;;;12.63;;
18716;SDS011;9487;50.892;6.906;2022-12-08T09:22:08;15.10;;;11.27;;
18716;SDS011;9487;50.892;6.906;2022-12-08T09:24:34;13.23;;;10.57;;
18716;SDS011;9487;50.892;6.906;2022-12-08T09:27:01;12.87;;;10.47;;
18716;SDS011;9487;50.892;6.906;2022-12-08T09:29:28;14.63;;;10.13;;
18716;SDS011;9487;50.892;6.906;2022-12-08T09:31:55;13.90;;;9.60;;
18716;SDS011;9487;50.892;6.906;2022-12-08T09:34:22;11.27;;;8.57;;
18716;SDS011;9487;50.892;6.906;2022-12-08T09:36:50;12.83;;;9.53;;
18716;SDS011;9487;50.892;6.906;2022-12-08T09:39:17;10.60;;;8.67;;
18716;SDS011;9487;50.892;6.906;2022-12-08T09:41:44;12.87;;;9.37;;
18716;SDS011;9487;50.892;6.906;2022-12-08T09:47:20;9.77;;;8.63;;
18716;SDS011;9487;50.892;6.906;2022-12-08T09:49:51;8.50;;;7.07;;
18716;SDS011;9487;50.892;6.906;2022-12-08T09:52:25;7.53;;;6.13;;
18716;SDS011;9487;50.892;6.906;2022-12-08T09:54:55;7.93;;;6.80;;
18716;SDS011;9487;50.892;6.906;2022-12-08T09:57:25;6.27;;;4.87;;
18716;SDS011;9487;50.892;6.906;2022-12-08T09:59:52;5.80;;;4.37;;
18716;SDS011;9487;50.892;6.906;2022-12-08T10:02:24;5.20;;;4.43;;
18716;SDS011;9487;50.892;6.906;2022-12-08T10:04:54;5.83;;;4.33;;
18716;SDS011;9487;50.892;6.906;2022-12-08T10:07:23;7.10;;;5.10;;
18716;SDS011;9487;50.892;6.906;2022-12-08T10:10:00;7.27;;;4.47;;
18716;SDS011;9487;50.892;6.906;2022-12-08T10:12:33;6.03;;;5.33;;
18716;SDS011;9487;50.892;6.906;2022-12-08T10:15:09;7.37;;;5.13;;
18716;SDS011;9487;50.892;6.906;2022-12-08T10:17:57;8.70;;;6.47;;
18716;SDS011;9487;50.892;6.906;2022-12-08T10:20:28;9.97;;;7.10;;
18716;SDS011;9487;50.892;6.906;2022-12-08T10:23:04;9.93;;;7.53;;
18716;SDS011;9487;50.892;6.906;2022-12-08T10:25:34;9.57;;;7.77;;
18716;SDS011;9487;50.892;6.906;2022-12-08T10:28:04;8.80;;;6.97;;
18716;SDS011;9487;50.892;6.906;2022-12-08T10:30:33;11.10;;;8.27;;
18716;SDS011;9487;50.892;6.906;2022-12-08T10:33:00;11.67;;;10.07;;
18716;SDS011;9487;50.892;6.906;2022-12-08T10:35:41;14.53;;;10.60;;
18716;SDS011;9487;50.892;6.906;2022-12-08T10:38:15;13.70;;;9.30;;
18716;SDS011;9487;50.892;6.906;2022-12-08T10:40:44;18.17;;;12.00;;
18716;SDS011;9487;50.892;6.906;2022-12-08T10:43:13;16.07;;;11.30;;
18716;SDS011;9487;50.892;6.906;2022-12-08T10:45:42;16.73;;;12.50;;
18716;SDS011;9487;50.892;6.906;2022-12-08T10:48:12;18.70;;;12.53;;
18716;SDS011;9487;50.892;6.906;2022-12-08T10:50:43;17.40;;;10.23;;
18716;SDS011;9487;50.892;6.906;2022-12-08T10:53:12;16.40;;;11.37;;
18716;SDS011;9487;50.892;6.906;2022-12-08T10:55:43;15.67;;;10.90;;
18716;SDS011;9487;50.892;6.906;2022-12-08T10:58:24;15.63;;;11.67;;
18716;SDS011;9487;50.892;6.906;2022-12-08T11:00:53;14.57;;;11.43;;
18716;SDS011;9487;50.892;6.906;2022-12-08T11:03:22;16.00;;;11.43;;
18716;SDS011;9487;50.892;6.906;2022-12-08T11:05:54;18.20;;;13.33;;
18716;SDS011;9487;50.892;6.906;2022-12-08T11:08:23;21.70;;;14.37;;
18716;SDS011;9487;50.892;6.906;2022-12-08T11:10:52;15.47;;;11.00;;
18716;SDS011;9487;50.892;6.906;2022-12-08T11:13:21;12.53;;;8.53;;
18716;SDS011;9487;50.892;6.906;2022-12-08T11:15:50;9.77;;;5.83;;
18716;SDS011;9487;50.892;6.906;2022-12-08T11:18:28;7.90;;;5.17;;
18716;SDS011;9487;50.892;6.906;2022-12-08T11:20:57;6.87;;;5.03;;
18716;SDS011;9487;50.892;6.906;2022-12-08T11:23:26;7.30;;;4.70;;
18716;SDS011;9487;50.892;6.906;2022-12-08T11:25:56;7.87;;;5.00;;
18716;SDS011;9487;50.892;6.906;2022-12-08T11:28:28;7.00;;;5.17;;
18716;SDS011;9487;50.892;6.906;2022-12-08T11:30:56;8.30;;;6.70;;
18716;SDS011;9487;50.892;6.906;2022-12-08T11:33:28;7.17;;;4.97;;
18716;SDS011;9487;50.892;6.906;2022-12-08T11:35:58;8.00;;;5.20;;
18716;SDS011;9487;50.892;6.906;2022-12-08T11:38:28;10.67;;;5.63;;
18716;SDS011;9487;50.892;6.906;2022-12-08T11:40:59;15.33;;;7.90;;
18716;SDS011;9487;50.892;6.906;2022-12-08T11:43:37;11.53;;;9.47;;
18716;SDS011;9487;50.892;6.906;2022-12-08T11:46:11;13.13;;;9.20;;
18716;SDS011;9487;50.892;6.906;2022-12-08T11:48:44;12.27;;;7.60;;
18716;SDS011;9487;50.892;6.906;2022-12-08T11:51:16;9.43;;;7.00;;
18716;SDS011;9487;50.892;6.906;2022-12-08T11:53:49;10.50;;;6.57;;
18716;SDS011;9487;50.892;6.906;2022-12-08T11:56:28;10.43;;;7.20;;
18716;SDS011;9487;50.892;6.906;2022-12-08T11:59:00;11.53;;;7.00;;
18716;SDS011;9487;50.892;6.906;2022-12-08T12:01:31;12.97;;;8.17;;
18716;SDS011;9487;50.892;6.906;2022-12-08T12:04:01;13.67;;;9.47;;
18716;SDS011;9487;50.892;6.906;2022-12-08T12:06:47;14.63;;;10.67;;
18716;SDS011;9487;50.892;6.906;2022-12-08T12:09:35;14.63;;;10.87;;
18716;SDS011;9487;50.892;6.906;2022-12-08T12:12:15;15.20;;;10.90;;
18716;SDS011;9487;50.892;6.906;2022-12-08T12:14:59;14.53;;;11.10;;
18716;SDS011;9487;50.892;6.906;2022-12-08T12:17:44;15.90;;;11.17;;
18716;SDS011;9487;50.892;6.906;2022-12-08T12:20:17;14.43;;;11.77;;
18716;SDS011;9487;50.892;6.906;2022-12-08T12:22:48;16.83;;;12.10;;
18716;SDS011;9487;50.892;6.906;2022-12-08T12:25:22;16.13;;;13.10;;
18716;SDS011;9487;50.892;6.906;2022-12-08T12:27:51;17.13;;;12.47;;
18716;SDS011;9487;50.892;6.906;2022-12-08T12:30:24;18.77;;;11.87;;
18716;SDS011;9487;50.892;6.906;2022-12-08T12:32:53;19.50;;;11.97;;
18716;SDS011;9487;50.892;6.906;2022-12-08T12:35:27;15.63;;;11.40;;
18716;SDS011;9487;50.892;6.906;2022-12-08T12:37:59;15.63;;;10.77;;
18716;SDS011;9487;50.892;6.906;2022-12-08T12:40:33;14.10;;;10.17;;
18716;SDS011;9487;50.892;6.906;2022-12-08T12:43:13;15.43;;;10.77;;
18716;SDS011;9487;50.892;6.906;2022-12-08T12:48:53;16.77;;;10.10;;
18716;SDS011;9487;50.892;6.906;2022-12-08T12:51:58;15.07;;;9.47;;
18716;SDS011;9487;50.892;6.906;2022-12-08T12:54:25;13.37;;;9.90;;
18716;SDS011;9487;50.892;6.906;2022-12-08T12:56:53;15.63;;;9.77;;
18716;SDS011;9487;50.892;6.906;2022-12-08T12:59:33;14.57;;;9.57;;
18716;SDS011;9487;50.892;6.906;2022-12-08T13:02:15;13.53;;;10.80;;
18716;SDS011;9487;50.892;6.906;2022-12-08T13:04:56;14.07;;;9.80;;
18716;SDS011;9487;50.892;6.906;2022-12-08T13:07:26;17.07;;;10.50;;
18716;SDS011;9487;50.892;6.906;2022-12-08T13:09:57;13.90;;;10.03;;
18716;SDS011;9487;50.892;6.906;2022-12-08T13:12:26;17.77;;;10.40;;
18716;SDS011;9487;50.892;6.906;2022-12-08T13:14:55;15.27;;;10.00;;
18716;SDS011;9487;50.892;6.906;2022-12-08T13:17:28;13.57;;;9.60;;
18716;SDS011;9487;50.892;6.906;2022-12-08T13:19:57;11.03;;;9.23;;
18716;SDS011;9487;50.892;6.906;2022-12-08T13:28:24;12.10;;;8.97;;
18716;SDS011;9487;50.892;6.906;2022-12-08T13:30:54;14.13;;;10.13;;
18716;SDS011;9487;50.892;6.906;2022-12-08T13:33:23;14.50;;;9.70;;
18716;SDS011;9487;50.892;6.906;2022-12-08T13:36:01;12.97;;;9.43;;
18716;SDS011;9487;50.892;6.906;2022-12-08T13:38:38;12.97;;;9.53;;
18716;SDS011;9487;50.892;6.906;2022-12-08T13:41:07;12.47;;;9.33;;
18716;SDS011;9487;50.892;6.906;2022-12-08T13:43:42;13.77;;;9.07;;
18716;SDS011;9487;50.892;6.906;2022-12-08T13:46:14;12.97;;;9.33;;
18716;SDS011;9487;50.892;6.906;2022-12-08T13:48:46;16.53;;;9.00;;
18716;SDS011;9487;50.892;6.906;2022-12-08T13:51:17;14.00;;;9.33;;
18716;SDS011;9487;50.892;6.906;2022-12-08T13:53:50;10.37;;;8.83;;
18716;SDS011;9487;50.892;6.906;2022-12-08T13:56:24;12.07;;;8.50;;
18716;SDS011;9487;50.892;6.906;2022-12-08T13:59:05;12.87;;;9.10;;
18716;SDS011;9487;50.892;6.906;2022-12-08T14:01:34;14.53;;;9.60;;
18716;SDS011;9487;50.892;6.906;2022-12-08T14:04:11;13.77;;;8.87;;
18716;SDS011;9487;50.892;6.906;2022-12-08T14:06:41;14.43;;;9.20;;
18716;SDS011;9487;50.892;6.906;2022-12-08T14:09:13;11.83;;;8.90;;
18716;SDS011;9487;50.892;6.906;2022-12-08T14:11:42;13.87;;;9.03;;
18716;SDS011;9487;50.892;6.906;2022-12-08T14:14:13;14.47;;;8.30;;
18716;SDS011;9487;50.892;6.906;2022-12-08T14:16:48;10.93;;;7.97;;
18716;SDS011;9487;50.892;6.906;2022-12-08T14:19:19;13.30;;;8.13;;
18716;SDS011;9487;50.892;6.906;2022-12-08T14:21:55;9.63;;;7.00;;
18716;SDS011;9487;50.892;6.906;2022-12-08T14:24:24;10.73;;;6.63;;
18716;SDS011;9487;50.892;6.906;2022-12-08T14:26:53;9.67;;;6.57;;
18716;SDS011;9487;50.892;6.906;2022-12-08T14:29:38;13.70;;;7.40;;
18716;SDS011;9487;50.892;6.906;2022-12-08T14:32:17;10.47;;;6.87;;
18716;SDS011;9487;50.892;6.906;2022-12-08T14:34:50;9.07;;;6.00;;
18716;SDS011;9487;50.892;6.906;2022-12-08T14:37:18;10.40;;;6.50;;
18716;SDS011;9487;50.892;6.906;2022-12-08T14:39:46;10.40;;;6.30;;
18716;SDS011;9487;50.892;6.906;2022-12-08T14:42:15;11.87;;;6.53;;
18716;SDS011;9487;50.892;6.906;2022-12-08T14:44:49;10.33;;;6.00;;
18716;SDS011;9487;50.892;6.906;2022-12-08T14:47:25;7.97;;;6.27;;
18716;SDS011;9487;50.892;6.906;2022-12-08T14:49:56;9.10;;;6.00;;
18716;SDS011;9487;50.892;6.906;2022-12-08T14:52:23;9.37;;;6.10;;
18716;SDS011;9487;50.892;6.906;2022-12-08T14:54:51;9.50;;;6.30;;
18716;SDS011;9487;50.892;6.906;2022-12-08T14:57:19;9.57;;;5.70;;
18716;SDS011;9487;50.892;6.906;2022-12-08T14:59:46;8.23;;;5.87;;
18716;SDS011;9487;50.892;6.906;2022-12-08T15:02:23;8.23;;;5.37;;
18716;SDS011;9487;50.892;6.906;2022-12-08T15:04:56;10.57;;;6.10;;
18716;SDS011;9487;50.892;6.906;2022-12-08T15:07:25;10.17;;;5.57;;
18716;SDS011;9487;50.892;6.906;2022-12-08T15:10:08;7.90;;;5.63;;
18716;SDS011;9487;50.892;6.906;2022-12-08T15:12:55;9.47;;;6.30;;